createdAt,value
2024-01-06T00:01:23.073Z,-3.00
2024-01-06T00:03:50.298Z,-3.00
2024-01-06T00:06:17.848Z,-3.00
2024-01-06T00:08:45.063Z,-3.00
2024-01-06T00:11:12.482Z,-3.10
2024-01-06T00:13:39.661Z,-3.10
2024-01-06T00:16:07.741Z,-3.10
2024-01-06T00:18:34.961Z,-3.10
2024-01-06T00:21:02.603Z,-3.10
2024-01-06T00:23:29.776Z,-3.10
2024-01-06T00:25:57.943Z,-3.10
2024-01-06T00:28:25.441Z,-3.10
2024-01-06T00:30:52.947Z,-3.10
2024-01-06T00:33:20.177Z,-2.60
2024-01-06T00:35:47.570Z,-3.10
2024-01-06T00:38:14.673Z,-3.00
2024-01-06T00:40:42.157Z,-3.00
2024-01-06T00:43:09.284Z,-3.00
2024-01-06T00:45:36.775Z,-3.00
2024-01-06T00:48:04.149Z,-3.00
2024-01-06T00:50:31.604Z,-3.00
2024-01-06T00:52:58.776Z,-2.90
2024-01-06T00:55:26.842Z,-2.90
2024-01-06T00:57:53.947Z,-3.00
2024-01-06T01:00:21.593Z,-2.90
2024-01-06T01:02:48.662Z,-2.90
2024-01-06T01:05:16.173Z,-2.70
2024-01-06T01:07:43.265Z,-2.00
2024-01-06T01:10:10.990Z,-2.90
2024-01-06T01:12:38.282Z,-2.90
2024-01-06T01:15:06.024Z,-2.90
2024-01-06T01:17:33.267Z,-2.80
2024-01-06T01:20:00.841Z,-2.80
2024-01-06T01:22:28.128Z,-2.80
2024-01-06T01:24:55.570Z,-2.80
2024-01-06T01:27:22.757Z,-2.80
2024-01-06T01:29:53.968Z,-2.80
2024-01-06T01:32:21.733Z,-2.70
2024-01-06T01:34:49.236Z,-2.70
2024-01-06T01:37:17.011Z,-2.80
2024-01-06T01:39:44.386Z,-2.70
2024-01-06T01:42:11.544Z,-2.70
2024-01-06T01:44:38.963Z,-2.70
2024-01-06T01:47:06.412Z,-1.50
2024-01-06T01:49:34.305Z,-2.80
2024-01-06T01:52:01.669Z,-2.80
2024-01-06T01:54:29.215Z,-2.80
2024-01-06T01:56:56.675Z,-2.80
2024-01-06T01:59:24.192Z,-2.70
2024-01-06T02:01:51.407Z,-2.80
2024-01-06T02:04:18.924Z,-2.70
2024-01-06T02:06:46.036Z,-2.80
2024-01-06T02:09:13.528Z,-2.70
2024-01-06T02:11:40.577Z,-2.70
2024-01-06T02:14:08.052Z,-2.70
2024-01-06T02:16:35.148Z,-2.70
2024-01-06T02:19:03.258Z,-2.70
2024-01-06T02:21:34.641Z,-2.60
2024-01-06T02:24:02.398Z,-2.60
2024-01-06T02:26:29.553Z,-2.60
2024-01-06T02:28:56.907Z,-2.60
2024-01-06T02:31:24.099Z,-2.60
2024-01-06T02:33:51.699Z,-2.60
2024-01-06T02:36:19.054Z,-2.60
2024-01-06T02:38:46.703Z,-2.70
2024-01-06T02:41:13.834Z,-2.70
2024-01-06T02:43:41.298Z,-2.70
2024-01-06T02:46:08.776Z,-2.60
2024-01-06T02:48:36.339Z,-2.70
2024-01-06T02:51:03.630Z,-2.70
2024-01-06T02:53:31.085Z,-2.70
2024-01-06T02:55:58.268Z,-2.70
2024-01-06T02:58:25.878Z,-2.70
2024-01-06T03:00:53.058Z,-2.70
2024-01-06T03:03:20.643Z,-2.70
2024-01-06T03:05:50.730Z,-2.70
2024-01-06T03:08:18.231Z,-2.70
2024-01-06T03:10:45.443Z,-2.60
2024-01-06T03:13:12.814Z,-2.60
2024-01-06T03:15:40.009Z,-2.60
2024-01-06T03:18:07.665Z,-2.60
2024-01-06T03:20:34.927Z,-2.60
2024-01-06T03:23:02.369Z,-2.50
2024-01-06T03:25:29.658Z,-2.50
2024-01-06T03:27:57.214Z,-2.60
2024-01-06T03:30:24.482Z,-2.50
2024-01-06T03:32:52.055Z,-2.60
2024-01-06T03:35:19.106Z,-2.60
2024-01-06T03:37:46.606Z,-2.40
2024-01-06T03:40:14.036Z,-2.70
2024-01-06T03:42:41.649Z,-2.70
2024-01-06T03:45:09.248Z,-2.70
2024-01-06T03:47:36.960Z,-2.80
2024-01-06T03:50:04.458Z,-2.80
2024-01-06T03:52:31.963Z,-2.80
2024-01-06T03:54:59.191Z,-2.80
2024-01-06T03:57:26.661Z,-2.80
2024-01-06T03:59:53.813Z,-2.80
2024-01-06T04:02:21.239Z,-2.80
2024-01-06T04:04:48.483Z,-2.80
2024-01-06T04:07:15.971Z,-2.80
2024-01-06T04:09:44.677Z,-2.80
2024-01-06T04:12:12.203Z,-2.80
2024-01-06T04:14:39.363Z,-2.80
2024-01-06T04:17:06.848Z,-2.80
2024-01-06T04:19:34.072Z,-2.80
2024-01-06T04:22:01.706Z,-2.80
2024-01-06T04:24:29.345Z,-2.80
2024-01-06T04:26:56.845Z,-2.60
2024-01-06T04:29:23.904Z,-2.70
2024-01-06T04:31:51.383Z,-2.60
2024-01-06T04:34:19.164Z,-2.60
2024-01-06T04:36:46.715Z,-2.60
2024-01-06T04:39:14.584Z,-2.60
2024-01-06T04:41:42.070Z,-2.60
2024-01-06T04:44:09.254Z,-2.60
2024-01-06T04:46:36.689Z,-2.60
2024-01-06T04:49:03.993Z,-2.60
2024-01-06T04:51:31.501Z,-2.20
2024-01-06T04:53:58.974Z,-2.60
2024-01-06T04:56:26.480Z,-2.50
2024-01-06T04:58:53.675Z,-2.60
2024-01-06T05:01:21.746Z,-2.50
2024-01-06T05:03:49.154Z,-2.50
2024-01-06T05:06:16.784Z,-2.50
2024-01-06T05:08:46.102Z,-2.60
2024-01-06T05:11:13.758Z,-2.20
2024-01-06T05:13:41.198Z,-2.50
2024-01-06T05:16:10.103Z,-2.50
2024-01-06T05:18:37.350Z,-2.50
2024-01-06T05:21:05.166Z,-2.50
2024-01-06T05:23:32.279Z,-2.60
2024-01-06T05:25:59.700Z,-2.60
2024-01-06T05:28:26.942Z,-2.60
2024-01-06T05:30:54.543Z,-2.70
2024-01-06T05:33:21.828Z,-2.70
2024-01-06T05:35:49.509Z,-2.70
2024-01-06T05:38:18.232Z,-2.70
2024-01-06T05:40:45.662Z,-2.80
2024-01-06T05:43:12.757Z,-2.80
2024-01-06T05:45:43.148Z,-2.80
2024-01-06T05:48:13.682Z,-2.80
2024-01-06T05:50:42.124Z,-2.80
2024-01-06T05:53:10.263Z,-2.80
2024-01-06T05:55:37.708Z,-2.70
2024-01-06T05:58:04.862Z,-2.80
2024-01-06T06:00:35.300Z,-2.70
2024-01-06T06:03:02.561Z,-2.60
2024-01-06T06:05:30.153Z,-2.70
2024-01-06T06:07:57.422Z,-2.70
2024-01-06T06:10:25.000Z,-2.70
2024-01-06T06:12:52.191Z,-2.70
2024-01-06T06:15:19.872Z,-2.60
2024-01-06T06:17:47.856Z,-2.70
2024-01-06T06:20:15.652Z,-2.70
2024-01-06T06:22:42.748Z,-2.70
2024-01-06T06:25:10.302Z,-2.60
2024-01-06T06:27:38.139Z,-2.60
2024-01-06T06:30:06.187Z,-2.60
2024-01-06T06:32:33.371Z,-2.60
2024-01-06T06:35:00.930Z,-2.70
2024-01-06T06:37:28.480Z,-2.60
2024-01-06T06:39:55.663Z,-2.70
2024-01-06T06:42:23.215Z,-2.70
2024-01-06T06:44:50.339Z,-2.80
2024-01-06T06:47:17.968Z,-2.80
2024-01-06T06:49:45.205Z,-2.80
2024-01-06T06:52:13.610Z,-2.80
2024-01-06T06:54:40.718Z,-2.90
2024-01-06T06:57:08.137Z,-2.90
2024-01-06T06:59:35.248Z,-2.50
2024-01-06T07:02:03.276Z,-3.00
2024-01-06T07:04:30.465Z,-3.00
2024-01-06T07:06:58.498Z,-3.00
2024-01-06T07:09:25.926Z,-3.10
2024-01-06T07:11:53.388Z,-3.00
2024-01-06T07:14:20.934Z,-3.10
2024-01-06T07:16:48.374Z,-3.10
2024-01-06T07:19:16.671Z,-3.00
2024-01-06T07:21:44.203Z,-3.00
2024-01-06T07:24:11.437Z,-3.00
2024-01-06T07:26:38.826Z,-3.00
2024-01-06T07:29:05.962Z,-3.00
2024-01-06T07:31:33.703Z,-3.00
2024-01-06T07:34:01.565Z,-3.00
2024-01-06T07:36:29.076Z,-3.00
2024-01-06T07:38:56.666Z,-3.00
2024-01-06T07:41:24.179Z,-3.00
2024-01-06T07:43:51.293Z,-3.00
2024-01-06T07:46:20.675Z,-3.00
2024-01-06T07:48:48.096Z,-3.00
2024-01-06T07:51:15.818Z,-3.00
2024-01-06T07:53:43.558Z,-3.10
2024-01-06T07:56:11.076Z,-3.20
2024-01-06T07:58:38.228Z,-4.50
2024-01-06T08:01:05.958Z,-3.30
2024-01-06T08:03:33.274Z,-3.30
2024-01-06T08:06:01.041Z,-3.30
2024-01-06T08:08:29.700Z,-3.30
2024-01-06T08:10:57.051Z,-3.40
2024-01-06T08:13:24.169Z,-3.40
2024-01-06T08:15:52.142Z,-3.40
2024-01-06T08:18:19.854Z,-3.40
2024-01-06T08:20:47.323Z,-3.20
2024-01-06T08:23:14.438Z,-3.40
2024-01-06T08:25:41.912Z,-3.40
2024-01-06T08:28:09.441Z,-3.40
2024-01-06T08:30:36.995Z,-3.40
2024-01-06T08:33:04.772Z,-3.40
2024-01-06T08:35:32.790Z,-3.40
2024-01-06T08:37:59.876Z,-3.40
2024-01-06T08:40:28.318Z,-3.40
2024-01-06T08:42:55.704Z,-3.40
2024-01-06T08:45:23.770Z,-3.40
2024-01-06T08:47:51.025Z,-3.40
2024-01-06T08:50:18.542Z,-3.40
2024-01-06T08:52:45.703Z,-3.40
2024-01-06T08:55:13.189Z,-3.40
2024-01-06T08:57:40.523Z,-3.40
2024-01-06T09:00:10.335Z,-2.10
2024-01-06T09:02:37.478Z,-3.30
2024-01-06T09:05:05.558Z,-3.20
2024-01-06T09:07:33.019Z,-3.20
2024-01-06T09:10:00.822Z,-3.10
2024-01-06T09:12:28.131Z,-3.00
2024-01-06T09:14:55.621Z,-3.00
2024-01-06T09:17:23.900Z,-2.90
2024-01-06T09:19:51.596Z,-2.80
2024-01-06T09:22:18.725Z,-2.70
2024-01-06T09:24:46.110Z,-2.70
2024-01-06T09:27:14.195Z,-2.60
2024-01-06T09:29:41.715Z,-2.60
2024-01-06T09:32:09.005Z,-2.50
2024-01-06T09:34:40.095Z,-2.50
2024-01-06T09:37:07.670Z,-2.50
2024-01-06T09:39:35.780Z,-2.40
2024-01-06T09:42:02.959Z,-0.80
2024-01-06T09:44:31.229Z,-2.40
2024-01-06T09:47:00.712Z,-2.30
2024-01-06T09:49:30.077Z,-2.30
2024-01-06T09:52:00.503Z,-2.20
2024-01-06T09:54:35.006Z,-2.20
2024-01-06T09:57:07.261Z,-2.10
2024-01-06T09:59:37.655Z,-1.50
2024-01-06T10:02:07.120Z,-0.40
2024-01-06T10:04:34.705Z,-1.90
2024-01-06T10:07:02.053Z,-1.90
2024-01-06T10:09:30.270Z,-1.80
2024-01-06T10:11:58.302Z,-0.90
2024-01-06T10:14:26.090Z,-1.70
2024-01-06T10:16:54.074Z,-1.60
2024-01-06T10:19:22.338Z,-1.50
2024-01-06T10:21:50.397Z,-1.40
2024-01-06T10:24:23.114Z,-1.30
2024-01-06T10:26:50.321Z,-1.20
2024-01-06T10:29:17.745Z,-1.10
2024-01-06T10:31:45.251Z,-0.90
2024-01-06T10:34:12.738Z,-0.70
2024-01-06T10:36:40.194Z,-0.50
2024-01-06T10:39:08.488Z,0.00
2024-01-06T10:41:36.556Z,0.40
2024-01-06T10:44:05.190Z,0.70
2024-01-06T10:46:34.081Z,1.10
2024-01-06T10:49:02.416Z,1.50
2024-01-06T10:51:32.049Z,3.30
2024-01-06T10:54:01.675Z,2.10
2024-01-06T10:56:30.959Z,2.40
2024-01-06T10:58:58.596Z,2.50
2024-01-06T11:01:28.169Z,2.50
2024-01-06T11:03:58.457Z,2.40
2024-01-06T11:06:26.894Z,2.90
2024-01-06T11:09:07.519Z,1.20
2024-01-06T11:11:37.420Z,1.90
2024-01-06T11:14:25.816Z,1.60
2024-01-06T11:16:54.217Z,1.30
2024-01-06T11:19:39.937Z,1.00
2024-01-06T11:22:38.365Z,0.90
2024-01-06T11:25:12.245Z,0.80
2024-01-06T11:27:40.192Z,0.60
2024-01-06T11:30:08.534Z,0.50
2024-01-06T11:32:40.291Z,0.30
2024-01-06T11:35:11.123Z,0.20
2024-01-06T11:37:53.114Z,0.00
2024-01-06T11:40:25.252Z,0.00
2024-01-06T11:43:11.595Z,-0.20
2024-01-06T11:45:42.707Z,-0.20
2024-01-06T11:48:13.509Z,1.50
2024-01-06T11:50:42.044Z,-0.30
2024-01-06T11:53:12.866Z,-0.30
2024-01-06T11:55:41.452Z,-0.30
2024-01-06T11:58:08.986Z,0.90
2024-01-06T12:00:44.224Z,0.20
2024-01-06T12:03:12.193Z,0.30
2024-01-06T12:05:39.885Z,1.30
2024-01-06T12:08:08.362Z,1.30
2024-01-06T12:10:43.358Z,0.20
2024-01-06T12:13:15.198Z,1.20
2024-01-06T12:15:44.554Z,-0.10
2024-01-06T12:18:11.928Z,-0.20
2024-01-06T12:20:39.511Z,-0.30
2024-01-06T12:23:07.986Z,-0.30
2024-01-06T12:25:40.191Z,-0.30
2024-01-06T12:28:08.687Z,0.60
2024-01-06T12:30:37.516Z,-0.30
2024-01-06T12:33:05.914Z,-0.30
2024-01-06T12:35:33.552Z,-0.20
2024-01-06T12:38:02.754Z,-0.20
2024-01-06T12:40:30.254Z,0.60
2024-01-06T12:42:57.462Z,-0.20
2024-01-06T12:45:24.906Z,0.20
2024-01-06T12:47:53.087Z,-0.40
2024-01-06T12:50:20.705Z,-0.50
2024-01-06T12:52:47.828Z,-0.50
2024-01-06T12:55:15.301Z,-0.60
2024-01-06T12:57:43.660Z,-0.60
2024-01-06T13:00:13.405Z,-0.70
2024-01-06T13:02:40.661Z,-0.70
2024-01-06T13:05:10.248Z,-0.70
2024-01-06T13:07:37.987Z,-0.80
2024-01-06T13:10:06.500Z,-0.80
2024-01-06T13:12:33.908Z,-0.90
2024-01-06T13:15:02.194Z,-0.90
2024-01-06T13:17:29.527Z,-1.00
2024-01-06T13:19:57.556Z,-1.10
2024-01-06T13:22:24.726Z,-1.20
2024-01-06T13:24:54.292Z,-1.20
2024-01-06T13:27:21.827Z,-1.20
2024-01-06T13:29:49.766Z,-1.20
2024-01-06T13:32:16.936Z,-1.30
2024-01-06T13:34:44.533Z,-1.30
2024-01-06T13:37:12.072Z,-1.30
2024-01-06T13:39:41.287Z,-1.40
2024-01-06T13:42:08.457Z,-1.40
2024-01-06T13:44:35.976Z,-1.50
2024-01-06T13:47:04.951Z,-1.60
2024-01-06T13:49:32.432Z,-1.70
2024-01-06T13:51:59.743Z,-1.70
2024-01-06T13:54:27.412Z,-1.80
2024-01-06T13:56:54.794Z,-1.80
2024-01-06T13:59:22.292Z,-1.90
2024-01-06T14:01:49.580Z,-1.90
2024-01-06T14:04:18.310Z,-2.00
2024-01-06T14:06:46.100Z,-2.00
2024-01-06T14:09:13.687Z,-2.10
2024-01-06T14:11:40.835Z,-2.10
2024-01-06T14:14:08.294Z,-2.10
2024-01-06T14:16:36.262Z,-2.20
2024-01-06T14:19:04.024Z,-2.20
2024-01-06T14:21:31.422Z,-2.20
2024-01-06T14:23:59.717Z,-2.30
2024-01-06T14:26:26.909Z,-2.30
2024-01-06T14:28:54.547Z,-2.40
2024-01-06T14:31:22.226Z,-2.40
2024-01-06T14:33:49.814Z,-2.50
2024-01-06T14:36:17.061Z,-2.50
2024-01-06T14:38:44.680Z,-2.60
2024-01-06T14:41:11.925Z,-2.60
2024-01-06T14:43:39.325Z,-2.60
2024-01-06T14:46:07.404Z,-2.70
2024-01-06T14:48:35.269Z,-2.70
2024-01-06T14:51:05.575Z,-2.70
2024-01-06T14:53:35.895Z,-2.70
2024-01-06T14:56:04.835Z,-2.80
2024-01-06T14:58:32.302Z,-2.80
2024-01-06T15:01:00.922Z,-2.80
2024-01-06T15:03:28.790Z,-2.80
2024-01-06T15:05:56.251Z,-2.80
2024-01-06T15:08:23.631Z,-2.80
2024-01-06T15:10:51.063Z,-2.90
2024-01-06T15:13:18.519Z,-2.00
2024-01-06T15:15:46.646Z,-2.80
2024-01-06T15:18:14.189Z,-2.90
2024-01-06T15:20:42.070Z,-2.90
2024-01-06T15:23:09.629Z,-2.90
2024-01-06T15:25:36.733Z,-2.90
2024-01-06T15:28:04.662Z,-2.90
2024-01-06T15:30:32.014Z,-3.00
2024-01-06T15:32:59.526Z,-3.00
2024-01-06T15:35:26.945Z,-3.00
2024-01-06T15:37:54.351Z,-3.00
2024-01-06T15:40:21.932Z,-3.10
2024-01-06T15:42:49.463Z,-3.10
2024-01-06T15:45:16.795Z,-3.20
2024-01-06T15:47:44.751Z,-3.20
2024-01-06T15:50:11.881Z,-3.30
2024-01-06T15:52:39.739Z,-3.30
2024-01-06T15:55:07.440Z,-3.30
2024-01-06T15:57:35.086Z,-3.40
2024-01-06T16:00:02.248Z,-3.50
2024-01-06T16:02:33.434Z,-3.50
2024-01-06T16:05:00.791Z,-3.60
2024-01-06T16:07:28.607Z,-3.60
2024-01-06T16:09:55.849Z,-3.70
2024-01-06T16:12:23.331Z,-3.70
2024-01-06T16:14:50.477Z,-3.70
2024-01-06T16:17:17.903Z,-3.70
2024-01-06T16:19:45.073Z,-3.80
2024-01-06T16:22:17.579Z,-3.50
2024-01-06T16:24:45.537Z,-3.80
2024-01-06T16:27:13.925Z,-3.90
2024-01-06T16:29:41.323Z,-3.90
2024-01-06T16:32:09.022Z,-4.00
2024-01-06T16:34:36.939Z,-4.00
2024-01-06T16:37:05.011Z,-4.00
2024-01-06T16:39:32.977Z,-2.60
2024-01-06T16:42:01.266Z,-4.10
2024-01-06T16:44:30.988Z,-3.80
2024-01-06T16:47:00.290Z,-4.20
2024-01-06T16:49:32.871Z,-3.60
2024-01-06T16:52:00.889Z,-4.30
2024-01-06T16:54:28.366Z,-4.30
2024-01-06T16:56:56.660Z,-4.30
2024-01-06T16:59:23.951Z,-4.40
2024-01-06T17:01:51.364Z,-4.40
2024-01-06T17:04:18.964Z,-4.40
2024-01-06T17:06:47.635Z,-4.50
2024-01-06T17:09:14.829Z,-4.50
2024-01-06T17:11:42.522Z,-4.50
2024-01-06T17:14:09.619Z,-4.60
2024-01-06T17:16:39.531Z,-4.60
2024-01-06T17:19:06.775Z,-4.60
2024-01-06T17:21:34.495Z,-4.60
2024-01-06T17:24:01.651Z,-4.60
2024-01-06T17:26:29.085Z,-4.70
2024-01-06T17:28:57.104Z,-4.70
2024-01-06T17:31:24.842Z,-4.70
2024-01-06T17:33:52.192Z,-4.80
2024-01-06T17:36:19.958Z,-3.90
2024-01-06T17:38:47.140Z,-4.80
2024-01-06T17:41:14.579Z,-4.80
2024-01-06T17:43:41.837Z,-4.90
2024-01-06T17:46:09.394Z,-4.90
2024-01-06T17:48:37.234Z,-4.90
2024-01-06T17:51:05.209Z,-4.30
2024-01-06T17:53:32.402Z,-5.00
2024-01-06T17:55:59.783Z,-5.00
2024-01-06T17:58:26.979Z,-5.00
2024-01-06T18:00:54.377Z,-5.00
2024-01-06T18:03:21.680Z,-5.00
2024-01-06T18:05:49.266Z,-5.00
2024-01-06T18:08:16.560Z,-5.00
2024-01-06T18:10:43.909Z,-5.00
2024-01-06T18:13:11.114Z,-5.00
2024-01-06T18:15:38.665Z,-5.00
2024-01-06T18:18:06.344Z,-5.00
2024-01-06T18:20:33.879Z,-4.90
2024-01-06T18:23:01.094Z,-4.90
2024-01-06T18:25:28.504Z,-4.90
2024-01-06T18:27:56.145Z,-4.80
2024-01-06T18:30:23.850Z,-4.70
2024-01-06T18:32:52.013Z,-4.70
2024-01-06T18:35:19.608Z,-4.60
2024-01-06T18:37:46.996Z,-4.60
2024-01-06T18:40:14.679Z,-4.50
2024-01-06T18:42:41.940Z,-4.40
2024-01-06T18:45:09.504Z,-4.30
2024-01-06T18:47:37.557Z,-4.30
2024-01-06T18:50:05.784Z,-4.20
2024-01-06T18:52:34.368Z,-4.20
2024-01-06T18:55:02.762Z,-4.00
2024-01-06T18:57:30.118Z,-3.90
2024-01-06T18:59:58.007Z,-3.90
2024-01-06T19:02:25.082Z,-3.80
2024-01-06T19:04:52.714Z,-3.80
2024-01-06T19:07:20.001Z,-2.50
2024-01-06T19:09:47.517Z,-2.90
2024-01-06T19:12:15.686Z,-3.70
2024-01-06T19:14:43.513Z,-3.60
2024-01-06T19:17:10.830Z,-3.60
2024-01-06T19:19:40.859Z,-3.50
2024-01-06T19:22:08.736Z,-3.50
2024-01-06T19:24:42.806Z,-3.50
2024-01-06T19:27:11.465Z,-3.40
2024-01-06T19:29:44.085Z,-3.40
2024-01-06T19:32:11.849Z,-3.40
2024-01-06T19:34:40.124Z,-3.40
2024-01-06T19:37:07.467Z,-3.40
2024-01-06T19:39:35.763Z,-3.40
2024-01-06T19:42:03.260Z,-3.40
2024-01-06T19:44:30.601Z,-3.40
2024-01-06T19:47:01.762Z,-3.40
2024-01-06T19:49:29.643Z,-3.40
2024-01-06T19:51:57.185Z,-3.40
2024-01-06T19:54:24.779Z,-3.50
2024-01-06T19:56:52.528Z,-3.60
2024-01-06T19:59:19.879Z,-3.60
2024-01-06T20:01:47.118Z,-2.90
2024-01-06T20:04:14.683Z,-3.80
2024-01-06T20:06:42.061Z,-3.80
2024-01-06T20:09:10.658Z,-3.90
2024-01-06T20:11:37.784Z,-4.00
2024-01-06T20:14:05.295Z,-4.00
2024-01-06T20:16:33.244Z,-2.70
2024-01-06T20:19:00.695Z,-4.20
2024-01-06T20:21:28.093Z,-4.20
2024-01-06T20:23:55.554Z,-4.30
2024-01-06T20:26:23.011Z,-4.40
2024-01-06T20:28:50.409Z,-4.50
2024-01-06T20:31:18.919Z,-4.60
2024-01-06T20:33:46.972Z,-4.60
2024-01-06T20:36:15.509Z,-4.70
2024-01-06T20:38:45.256Z,-4.80
2024-01-06T20:41:12.506Z,-4.80
2024-01-06T20:43:39.847Z,-4.90
2024-01-06T20:46:07.236Z,-5.00
2024-01-06T20:48:34.741Z,-5.00
2024-01-06T20:51:03.584Z,-5.10
2024-01-06T20:53:31.092Z,-5.10
2024-01-06T20:55:59.009Z,-5.10
2024-01-06T20:58:26.534Z,-5.20
2024-01-06T21:00:53.920Z,-5.20
2024-01-06T21:03:21.782Z,-5.20
2024-01-06T21:05:49.360Z,-5.30
2024-01-06T21:08:16.855Z,-5.30
2024-01-06T21:10:44.142Z,-5.40
2024-01-06T21:13:11.565Z,-5.40
2024-01-06T21:15:38.828Z,-5.40
2024-01-06T21:18:06.714Z,-5.50
2024-01-06T21:20:34.314Z,-5.50
2024-01-06T21:23:04.115Z,-5.50
2024-01-06T21:25:31.255Z,-5.60
2024-01-06T21:27:59.251Z,-4.80
2024-01-06T21:30:27.306Z,-5.70
2024-01-06T21:33:01.707Z,-5.70
2024-01-06T21:35:31.090Z,-5.70
2024-01-06T21:37:58.998Z,-5.80
2024-01-06T21:40:26.805Z,-5.80
2024-01-06T21:42:55.501Z,-5.90
2024-01-06T21:45:22.860Z,-5.90
2024-01-06T21:47:54.238Z,-5.90
2024-01-06T21:50:21.538Z,-6.00
2024-01-06T21:52:48.975Z,-6.10
2024-01-06T21:55:16.102Z,-6.10
2024-01-06T21:57:43.541Z,-6.10
2024-01-06T22:00:16.776Z,-6.20
2024-01-06T22:02:44.360Z,-6.20
2024-01-06T22:05:11.662Z,-6.20
2024-01-06T22:07:39.158Z,-6.30
2024-01-06T22:10:07.550Z,-6.30
2024-01-06T22:12:35.023Z,-6.40
2024-01-06T22:15:02.449Z,-6.40
2024-01-06T22:17:30.165Z,-6.40
2024-01-06T22:19:57.406Z,-6.40
2024-01-06T22:22:25.924Z,-6.50
2024-01-06T22:24:53.375Z,-6.50
2024-01-06T22:27:21.009Z,-6.50
2024-01-06T22:29:48.450Z,-5.10
2024-01-06T22:32:16.041Z,-6.60
2024-01-06T22:34:45.330Z,-6.60
2024-01-06T22:37:13.170Z,-6.60
2024-01-06T22:39:42.955Z,-6.70
2024-01-06T22:42:10.390Z,-6.60
2024-01-06T22:44:37.659Z,-6.70
2024-01-06T22:47:05.037Z,-6.80
2024-01-06T22:49:32.252Z,-6.80
2024-01-06T22:51:59.749Z,-6.90
2024-01-06T22:54:30.198Z,-6.90
2024-01-06T22:56:57.745Z,-6.90
2024-01-06T22:59:24.997Z,-7.00
2024-01-06T23:01:53.539Z,-7.00
2024-01-06T23:04:20.970Z,-7.00
2024-01-06T23:06:49.040Z,-7.00
2024-01-06T23:09:17.286Z,-7.10
2024-01-06T23:11:44.943Z,-7.10
2024-01-06T23:14:12.241Z,-7.10
2024-01-06T23:16:42.363Z,-7.10
2024-01-06T23:19:10.047Z,-7.10
2024-01-06T23:21:38.100Z,-7.20
2024-01-06T23:24:05.581Z,-7.20
2024-01-06T23:26:33.075Z,-7.20
2024-01-06T23:29:02.119Z,-7.30
2024-01-06T23:31:29.656Z,-7.40
2024-01-06T23:33:57.021Z,-7.40
2024-01-06T23:36:25.049Z,-7.40
2024-01-06T23:38:52.207Z,-7.50
2024-01-06T23:41:19.722Z,-7.50
2024-01-06T23:43:46.784Z,-7.50
2024-01-06T23:46:14.333Z,-7.50
2024-01-06T23:48:41.922Z,-7.60
2024-01-06T23:51:15.948Z,-7.50
2024-01-06T23:53:43.054Z,-7.60
2024-01-06T23:56:10.433Z,-7.60
2024-01-06T23:58:39.024Z,-7.60
